Darstellungsparameter: Aktuell verwendete Einstellungen:
Skalierung der Graphiken ... ?
xyx+y,   Skalierungsfaktor:      Skalierung: Modus: x, Faktor: 1
Darstellungszeitraum ... ?
Vom - - bis: - -   Zeitraum: 03.09.2011 - 07.09.2011
Min/Max/Avg-Anzeige ... ?
Zeige MMA aktuell
Zeige MMA Monat
Zeige MMA alles
Zeige --A aktuell
Zeige --A Monat
Zeige --A alles
Keine MMA-Anzeige
MMA:
Keine MMA-Graphiken
MMA-Basis: 03.09.2011 - 07.09.2011
Quicknavigation für Darstellung... ?
Tage:      1T, 2T, 3T, 5T -1T -2T -3T -5T +1T +2T +3T +5T
Wochen: 1W, 2W, 3W -1W -2W -3W +1W +2W +3W
Monate: 1M, 3M, 6M -1M -3M -6M +1M +3M +6M
Jahre:    1J, 3J, 5J, 10J -1J -3J -5J -10J +1J +3J +5J +10J
Nutze für die Darstellung ... ?
Originaldaten oder Mittelwerte auf ...
Stundenbasis Tagesbasis Wochenbasis
Monatsbasis Jahresbasis      Datenbasis: Original-Daten
Darstellen als:
Statistik (Auto) Statistik J:M      Darstellung:
Zur Graphik,    zurück zur Übersicht aller Sensoren.
 
Tabellarische Datenbersicht: ?
 
Sensor: Nr:Datum:Temp:Abs-Feuchte:Windchill:Wind:
Aussen-T/F 1 03-09-2011 00:10:02 15.8 C 11.44 g/m*3 15.8 C 0 km/h
2 03-09-2011 00:22:02 15.8 C 11.58 g/m*3 15.8 C 0 km/h
3 03-09-2011 00:34:01 15.6 C 11.44 g/m*3 15.6 C 0 km/h
4 03-09-2011 00:46:02 15.5 C 11.37 g/m*3 15.5 C 0 km/h
5 03-09-2011 00:58:02 15.5 C 11.37 g/m*3 15.5 C 0 km/h
6 03-09-2011 01:10:01 15.6 C 11.57 g/m*3 15.6 C 0 km/h
7 03-09-2011 01:22:02 15.3 C 11.36 g/m*3 15.3 C 0 km/h
8 03-09-2011 01:34:02 15.2 C 11.29 g/m*3 15.2 C 0 km/h
9 03-09-2011 01:46:02 15.2 C 11.29 g/m*3 15.2 C 0 km/h
10 03-09-2011 01:58:03 15.2 C 11.29 g/m*3 15.2 C 0 km/h
11 03-09-2011 02:10:02 15.1 C 11.22 g/m*3 15.1 C 0 km/h
12 03-09-2011 02:22:02 15 C 11.16 g/m*3 15 C 0 km/h
13 03-09-2011 02:34:03 15.1 C 11.35 g/m*3 15.1 C 0 km/h
14 03-09-2011 02:47:03 15 C 11.28 g/m*3 15 C 0 km/h
15 03-09-2011 02:59:03 14.9 C 11.34 g/m*3 14.9 C 0 km/h
16 03-09-2011 03:11:04 14.8 C 11.27 g/m*3 14.8 C 0 km/h
17 03-09-2011 03:23:04 14.8 C 11.27 g/m*3 14.8 C 0 km/h
18 03-09-2011 03:35:02 14.7 C 11.21 g/m*3 14.7 C 0 km/h
19 03-09-2011 03:47:02 14.7 C 11.21 g/m*3 14.7 C 0 km/h
20 03-09-2011 03:59:02 14.6 C 11.14 g/m*3 14.6 C 0 km/h
21 03-09-2011 04:11:02 14.7 C 11.21 g/m*3 14.7 C 0 km/h
22 03-09-2011 04:23:02 14.5 C 11.07 g/m*3 14.5 C 0 km/h
23 03-09-2011 04:35:02 14.5 C 11.07 g/m*3 14.5 C 0 km/h
24 03-09-2011 04:47:02 14.7 C 11.33 g/m*3 14.7 C 0 km/h
25 03-09-2011 04:59:02 14.1 C 10.8 g/m*3 14.1 C 0 km/h
Sensor: Nr:Datum:Temp:Abs-Feuchte:Windchill:Wind:
Aussen-T/F 26 03-09-2011 05:11:01 14.3 C 10.93 g/m*3 14.3 C 0 km/h
27 03-09-2011 05:23:02 14.3 C 10.93 g/m*3 14.3 C 0 km/h
28 03-09-2011 05:35:02 14.1 C 10.8 g/m*3 14.1 C 0 km/h
29 03-09-2011 05:47:02 14.4 C 11.13 g/m*3 14.4 C 0 km/h
30 03-09-2011 05:59:02 14 C 10.74 g/m*3 14 C 0 km/h
31 03-09-2011 06:11:02 14.4 C 11.13 g/m*3 14.4 C 0 km/h
32 03-09-2011 06:23:02 13.8 C 10.72 g/m*3 13.8 C 0 km/h
33 03-09-2011 06:35:03 13.7 C 10.66 g/m*3 13.7 C 0 km/h
34 03-09-2011 06:47:02 14 C 10.86 g/m*3 14 C 0 km/h
35 03-09-2011 06:59:02 14.1 C 10.92 g/m*3 14.1 C 0 km/h
36 03-09-2011 07:11:02 14.5 C 11.19 g/m*3 14.5 C 0 km/h
37 03-09-2011 07:23:01 14.5 C 11.19 g/m*3 14.5 C 0 km/h
38 03-09-2011 07:35:02 14.8 C 11.4 g/m*3 14.8 C 0 km/h
39 03-09-2011 07:47:02 14.8 C 11.4 g/m*3 14.8 C 0 km/h
40 03-09-2011 07:59:02 14.8 C 11.4 g/m*3 14.8 C 0 km/h
41 03-09-2011 08:11:02 14.9 C 11.47 g/m*3 14.9 C 0 km/h
42 03-09-2011 08:23:02 15.1 C 11.61 g/m*3 15.1 C 0 km/h
43 03-09-2011 08:35:02 15.4 C 11.82 g/m*3 15.4 C 0 km/h
44 03-09-2011 08:47:02 15.4 C 11.82 g/m*3 15.4 C 0 km/h
45 03-09-2011 08:59:02 15.5 C 11.9 g/m*3 15.5 C 0 km/h
46 03-09-2011 09:11:01 15.7 C 11.91 g/m*3 15.7 C 0 km/h
47 03-09-2011 09:23:02 15.4 C 11.69 g/m*3 15.4 C 0 km/h
48 03-09-2011 09:35:01 15.5 C 11.76 g/m*3 15.5 C 0 km/h
49 03-09-2011 09:47:03 15.9 C 12.05 g/m*3 15.9 C 0 km/h
50 03-09-2011 09:59:03 16 C 11.99 g/m*3 16 C 0 km/h
Sensor: Nr:Datum:Temp:Abs-Feuchte:Windchill:Wind:
Aussen-T/F 51 03-09-2011 10:11:02 16.6 C 12.57 g/m*3 16.6 C 0 km/h
52 03-09-2011 10:23:02 17 C 12.73 g/m*3 17 C 0 km/h
53 03-09-2011 10:35:03 17.4 C 13.19 g/m*3 17.4 C 0 km/h
54 03-09-2011 10:47:02 17.8 C 13.51 g/m*3 17.8 C 0 km/h
55 03-09-2011 10:59:03 18.2 C 13.68 g/m*3 18.2 C 0 km/h
56 03-09-2011 11:11:01 18.6 C 14.01 g/m*3 18.6 C 0 km/h
57 03-09-2011 11:23:02 19 C 14.18 g/m*3 19 C 0 km/h
58 03-09-2011 11:35:01 19.4 C 14.68 g/m*3 19.4 C 0 km/h
59 03-09-2011 11:47:02 19.8 C 15.03 g/m*3 19.8 C 0 km/h
60 03-09-2011 11:59:03 20.4 C 15.39 g/m*3 20.4 C 0 km/h
61 03-09-2011 12:11:02 21.3 C 16.03 g/m*3 21.3 C 0 km/h
62 03-09-2011 12:23:02 22.2 C 16.49 g/m*3 22.2 C 0 km/h
63 03-09-2011 12:35:03 23.3 C 16.73 g/m*3 23.3 C 0 km/h
64 03-09-2011 12:47:02 24.6 C 15.3 g/m*3 24.6 C 0 km/h
65 03-09-2011 12:59:02 25.4 C 13.18 g/m*3 25.4 C 0 km/h
66 03-09-2011 13:11:02 26.4 C 12.94 g/m*3 26.4 C 0 km/h
67 03-09-2011 13:23:02 26.3 C 12.13 g/m*3 26.3 C 0 km/h
68 03-09-2011 13:35:02 25.4 C 13.89 g/m*3 25.4 C 0 km/h
69 03-09-2011 13:47:02 26.2 C 12.56 g/m*3 26.2 C 0 km/h
70 03-09-2011 13:59:02 28.1 C 12.58 g/m*3 28.1 C 0 km/h
71 03-09-2011 14:11:02 28 C 13.33 g/m*3 28 C 0 km/h
72 03-09-2011 14:23:02 28.7 C 11.02 g/m*3 28.7 C 0 km/h
73 03-09-2011 14:35:02 27.5 C 11.11 g/m*3 27.5 C 0 km/h
74 03-09-2011 14:47:02 29.1 C 11.84 g/m*3 29.1 C 0 km/h
75 03-09-2011 14:59:02 32.1 C 10.18 g/m*3 32.1 C 0 km/h
Sensor: Nr:Datum:Temp:Abs-Feuchte:Windchill:Wind:
Aussen-T/F 76 03-09-2011 15:11:02 32.5 C 9.71 g/m*3 32.5 C 0 km/h
77 03-09-2011 15:23:02 31.7 C 9.3 g/m*3 31.7 C 0 km/h
78 03-09-2011 15:35:02 32.8 C 8.81 g/m*3 32.8 C 0 km/h
79 03-09-2011 15:47:02 32.4 C 9.31 g/m*3 32.4 C 0 km/h
80 03-09-2011 15:59:02 31.9 C 8.39 g/m*3 31.9 C 0 km/h
81 03-09-2011 16:11:02 33 C 7.48 g/m*3 33 C 0 km/h
82 03-09-2011 16:23:02 31.9 C 10.07 g/m*3 31.9 C 0 km/h
83 03-09-2011 16:35:02 31.7 C 9.3 g/m*3 31.7 C 0 km/h
84 03-09-2011 16:47:02 30.4 C 10.85 g/m*3 30.4 C 0 km/h
85 03-09-2011 16:59:02 31.7 C 9.3 g/m*3 31.7 C 0 km/h
86 03-09-2011 17:11:01 31.5 C 9.53 g/m*3 31.5 C 0 km/h
87 03-09-2011 17:23:02 31.9 C 8.73 g/m*3 31.9 C 0 km/h
88 03-09-2011 17:35:01 32.3 C 8.92 g/m*3 32.3 C 0 km/h
89 03-09-2011 17:47:03 31.3 C 10.08 g/m*3 31.3 C 0 km/h
90 03-09-2011 17:59:03 31.9 C 10.41 g/m*3 31.9 C 0 km/h
91 03-09-2011 18:11:02 31.6 C 10.57 g/m*3 31.6 C 0 km/h
92 03-09-2011 18:23:03 30.8 C 11.08 g/m*3 30.8 C 0 km/h
93 03-09-2011 18:35:02 30 C 11.83 g/m*3 30 C 0 km/h
94 03-09-2011 18:47:01 28 C 12.24 g/m*3 28 C 0 km/h
95 03-09-2011 18:59:01 28.4 C 11.95 g/m*3 28.4 C 0 km/h
96 03-09-2011 19:11:01 26.6 C 11.83 g/m*3 26.6 C 0 km/h
97 03-09-2011 19:23:02 24.6 C 12.38 g/m*3 24.6 C 0 km/h
98 03-09-2011 19:35:01 23.9 C 12.55 g/m*3 23.9 C 0 km/h
99 03-09-2011 19:47:02 23.2 C 12.47 g/m*3 23.2 C 0 km/h
100 03-09-2011 19:59:02 22.6 C 12.25 g/m*3 22.6 C 0 km/h
Sensor: Nr:Datum:Temp:Abs-Feuchte:Windchill:Wind:
Aussen-T/F 101 03-09-2011 20:11:01 22.3 C 12.24 g/m*3 22.3 C 0 km/h
102 03-09-2011 20:23:02 21.9 C 12.16 g/m*3 21.9 C 0 km/h
103 03-09-2011 20:35:02 21.6 C 11.95 g/m*3 21.6 C 0 km/h
104 03-09-2011 20:47:02 21.7 C 12.02 g/m*3 21.7 C 0 km/h
105 03-09-2011 20:59:02 21.4 C 11.81 g/m*3 21.4 C 0 km/h
106 03-09-2011 21:11:02 21.4 C 11.81 g/m*3 21.4 C 0 km/h
107 03-09-2011 21:23:02 21 C 11.72 g/m*3 21 C 0 km/h
108 03-09-2011 21:35:03 20.9 C 11.84 g/m*3 20.9 C 0 km/h
109 03-09-2011 21:47:03 20.9 C 11.66 g/m*3 20.9 C 0 km/h
110 03-09-2011 21:59:03 20.9 C 11.66 g/m*3 20.9 C 0 km/h
111 03-09-2011 22:11:02 20.7 C 11.52 g/m*3 20.7 C 0 km/h
112 03-09-2011 22:23:02 20.6 C 11.63 g/m*3 20.6 C 0 km/h
113 03-09-2011 22:35:03 20.4 C 11.85 g/m*3 20.4 C 0 km/h
114 03-09-2011 22:48:03 20.3 C 11.78 g/m*3 20.3 C 0 km/h
115 03-09-2011 23:00:03 19.7 C 11.89 g/m*3 19.7 C 0 km/h
116 03-09-2011 23:12:03 19.7 C 12.06 g/m*3 19.7 C 0 km/h
117 03-09-2011 23:24:03 19.4 C 12.01 g/m*3 19.4 C 0 km/h
118 03-09-2011 23:36:03 19 C 11.9 g/m*3 19 C 0 km/h
119 03-09-2011 23:48:04 18.8 C 12.08 g/m*3 18.8 C 0 km/h
120 04-09-2011 00:00:04 19.1 C 12.29 g/m*3 19.1 C 0 km/h
121 04-09-2011 00:12:04 19.4 C 12.18 g/m*3 19.4 C 0 km/h
122 04-09-2011 00:24:04 19.2 C 12.04 g/m*3 19.2 C 0 km/h
123 04-09-2011 00:36:04 19.1 C 12.13 g/m*3 19.1 C 0 km/h
124 04-09-2011 00:48:04 19 C 12.22 g/m*3 19 C 0 km/h
125 04-09-2011 01:00:04 19.1 C 12.62 g/m*3 19.1 C 0 km/h
Sensor: Nr:Datum:Temp:Abs-Feuchte:Windchill:Wind:
Aussen-T/F 126 04-09-2011 01:12:04 20.7 C 12.06 g/m*3 20.7 C 0 km/h
127 04-09-2011 01:24:04 20.2 C 12.06 g/m*3 20.2 C 0 km/h
128 04-09-2011 01:36:04 20 C 12.27 g/m*3 20 C 0 km/h
129 04-09-2011 01:48:04 19.8 C 12.64 g/m*3 19.8 C 0 km/h
130 04-09-2011 02:00:04 19.6 C 12.83 g/m*3 19.6 C 0 km/h
131 04-09-2011 02:12:04 19.6 C 13 g/m*3 19.6 C 0 km/h
132 04-09-2011 02:24:04 19.5 C 12.92 g/m*3 19.5 C 0 km/h
133 04-09-2011 02:36:05 19.3 C 13.1 g/m*3 19.3 C 0 km/h
134 04-09-2011 02:48:05 19.3 C 13.6 g/m*3 19.3 C 0 km/h
135 04-09-2011 03:00:05 19.3 C 13.77 g/m*3 19.3 C 0 km/h
136 04-09-2011 03:12:05 19.1 C 13.77 g/m*3 19.1 C 0 km/h
137 04-09-2011 03:24:05 19.2 C 13.85 g/m*3 19.2 C 0 km/h
138 04-09-2011 03:36:05 19.2 C 13.85 g/m*3 19.2 C 0 km/h
139 04-09-2011 03:48:05 19.2 C 14.02 g/m*3 19.2 C 0 km/h
140 04-09-2011 04:00:05 19.3 C 13.93 g/m*3 19.3 C 0 km/h
141 04-09-2011 04:12:05 19.3 C 13.93 g/m*3 19.3 C 0 km/h
142 04-09-2011 04:24:05 19.3 C 13.93 g/m*3 19.3 C 0 km/h
143 04-09-2011 04:36:05 19.4 C 14.01 g/m*3 19.4 C 0 km/h
144 04-09-2011 04:48:05 19.4 C 13.85 g/m*3 19.4 C 0 km/h
145 04-09-2011 05:00:05 19.3 C 13.77 g/m*3 19.3 C 0 km/h
146 04-09-2011 05:12:05 19.2 C 13.69 g/m*3 19.2 C 0 km/h
147 04-09-2011 05:24:05 19.3 C 13.77 g/m*3 19.3 C 0 km/h
148 04-09-2011 05:36:05 19.3 C 13.6 g/m*3 19.3 C 0 km/h
149 04-09-2011 05:48:05 19.3 C 13.6 g/m*3 19.3 C 0 km/h
150 04-09-2011 06:00:05 19.3 C 13.6 g/m*3 19.3 C 0 km/h
Sensor: Nr:Datum:Temp:Abs-Feuchte:Windchill:Wind:
Aussen-T/F 151 04-09-2011 06:12:05 19.3 C 13.44 g/m*3 19.3 C 0 km/h
152 04-09-2011 06:24:05 19.2 C 13.36 g/m*3 19.2 C 0 km/h
153 04-09-2011 06:36:05 19.2 C 13.36 g/m*3 19.2 C 0 km/h
154 04-09-2011 06:48:05 19.3 C 13.44 g/m*3 19.3 C 0 km/h
155 04-09-2011 07:00:05 19.4 C 13.51 g/m*3 19.4 C 0 km/h
156 04-09-2011 07:12:06 19.7 C 13.41 g/m*3 19.7 C 0 km/h
157 04-09-2011 07:24:06 19.8 C 12.98 g/m*3 19.8 C 0 km/h
158 04-09-2011 07:36:06 20.3 C 13.01 g/m*3 20.3 C 0 km/h
159 04-09-2011 07:48:06 20.4 C 12.91 g/m*3 20.4 C 0 km/h
160 04-09-2011 08:00:06 20.5 C 12.99 g/m*3 20.5 C 0 km/h
161 04-09-2011 08:12:03 20.6 C 12.89 g/m*3 20.6 C 0 km/h
162 04-09-2011 08:24:03 20.6 C 13.07 g/m*3 20.6 C 0 km/h
163 04-09-2011 08:36:03 20.5 C 13.17 g/m*3 20.5 C 0 km/h
164 04-09-2011 08:48:02 20.8 C 13.22 g/m*3 20.8 C 0 km/h
165 04-09-2011 09:00:02 21.2 C 12.97 g/m*3 21.2 C 0 km/h
166 04-09-2011 09:12:03 21.6 C 13.09 g/m*3 21.6 C 0 km/h
167 04-09-2011 09:24:02 21.8 C 13.05 g/m*3 21.8 C 0 km/h
168 04-09-2011 09:36:02 22.1 C 13.27 g/m*3 22.1 C 0 km/h
169 04-09-2011 09:48:01 22.1 C 13.27 g/m*3 22.1 C 0 km/h
170 04-09-2011 10:00:01 22.1 C 13.08 g/m*3 22.1 C 0 km/h
171 04-09-2011 10:12:02 22.5 C 13.38 g/m*3 22.5 C 0 km/h
172 04-09-2011 10:24:01 23.2 C 13.31 g/m*3 23.2 C 0 km/h
173 04-09-2011 10:36:02 23.3 C 12.96 g/m*3 23.3 C 0 km/h
174 04-09-2011 10:48:02 23.5 C 13.11 g/m*3 23.5 C 0 km/h
175 04-09-2011 11:00:02 23.5 C 13.32 g/m*3 23.5 C 0 km/h
Sensor: Nr:Datum:Temp:Abs-Feuchte:Windchill:Wind:
Aussen-T/F 176 04-09-2011 11:12:02 23.9 C 12.76 g/m*3 23.9 C 0 km/h
177 04-09-2011 11:24:02 24.4 C 12.24 g/m*3 24.4 C 0 km/h
178 04-09-2011 11:36:02 24.4 C 12.02 g/m*3 24.4 C 0 km/h
179 04-09-2011 11:48:02 24.5 C 11.86 g/m*3 24.5 C 0 km/h
180 04-09-2011 12:00:02 24.9 C 12.36 g/m*3 24.9 C 0 km/h
181 04-09-2011 12:12:02 25.3 C 11.47 g/m*3 25.3 C 0 km/h
182 04-09-2011 12:24:02 25.6 C 11.9 g/m*3 25.6 C 0 km/h
183 04-09-2011 12:36:02 25.8 C 11.8 g/m*3 25.8 C 0 km/h
184 04-09-2011 12:48:01 25.8 C 11.56 g/m*3 25.8 C 0 km/h
185 04-09-2011 13:00:01 26 C 11.44 g/m*3 26 C 0 km/h
186 04-09-2011 13:12:01 26.7 C 11.39 g/m*3 26.7 C 0 km/h
187 04-09-2011 13:24:01 26.9 C 11.26 g/m*3 26.9 C 0 km/h
188 04-09-2011 13:36:01 26.4 C 11.2 g/m*3 26.4 C 0 km/h
189 04-09-2011 13:48:01 26.6 C 11.33 g/m*3 26.6 C 0 km/h
190 04-09-2011 14:00:01 26.2 C 10.83 g/m*3 26.2 C 0 km/h
191 04-09-2011 14:12:02 26.9 C 11.01 g/m*3 26.9 C 0 km/h
192 04-09-2011 14:24:01 27.4 C 10.52 g/m*3 27.4 C 0 km/h
193 04-09-2011 14:36:01 27.5 C 10.85 g/m*3 27.5 C 0 km/h
194 04-09-2011 14:48:01 27.3 C 10.73 g/m*3 27.3 C 0 km/h
195 04-09-2011 15:00:01 27.2 C 10.41 g/m*3 27.2 C 0 km/h
196 04-09-2011 15:12:02 27 C 10.55 g/m*3 27 C 0 km/h
197 04-09-2011 15:24:02 26.6 C 10.32 g/m*3 26.6 C 0 km/h
198 04-09-2011 15:36:01 26.5 C 11.26 g/m*3 26.5 C 0 km/h
199 04-09-2011 15:48:02 26 C 9.98 g/m*3 26 C 0 km/h
200 04-09-2011 16:00:02 25.9 C 10.41 g/m*3 25.9 C 0 km/h
Sensor: Nr:Datum:Temp:Abs-Feuchte:Windchill:Wind:
Aussen-T/F 201 04-09-2011 16:12:01 25.7 C 10.77 g/m*3 25.7 C 0 km/h
202 04-09-2011 16:24:02 24.6 C 10.58 g/m*3 24.6 C 0 km/h
203 04-09-2011 16:36:01 24.7 C 10.64 g/m*3 24.7 C 0 km/h
204 04-09-2011 16:48:02 22.9 C 11.65 g/m*3 22.9 C 0 km/h
205 04-09-2011 17:00:02 22 C 12.03 g/m*3 22 C 0 km/h
206 04-09-2011 17:12:02 22.3 C 12.24 g/m*3 22.3 C 0 km/h
207 04-09-2011 17:24:02 22.3 C 12.64 g/m*3 22.3 C 0 km/h
208 04-09-2011 17:36:02 22.3 C 12.83 g/m*3 22.3 C 0 km/h
209 04-09-2011 17:48:02 22.2 C 12.96 g/m*3 22.2 C 0 km/h
210 04-09-2011 18:00:02 21.9 C 13.31 g/m*3 21.9 C 0 km/h
211 04-09-2011 18:12:02 22 C 13 g/m*3 22 C 0 km/h
212 04-09-2011 18:24:01 22.2 C 12.76 g/m*3 22.2 C 0 km/h
213 04-09-2011 18:36:02 21.9 C 12.74 g/m*3 21.9 C 0 km/h
214 04-09-2011 18:48:02 21.8 C 12.47 g/m*3 21.8 C 0 km/h
215 04-09-2011 19:00:02 21.6 C 12.33 g/m*3 21.6 C 0 km/h
216 04-09-2011 19:12:02 21.3 C 12.49 g/m*3 21.3 C 0 km/h
217 04-09-2011 19:24:02 21.4 C 12.37 g/m*3 21.4 C 0 km/h
218 04-09-2011 19:36:02 21.1 C 12.53 g/m*3 21.1 C 0 km/h
219 04-09-2011 19:48:02 20.9 C 12.57 g/m*3 20.9 C 0 km/h
220 04-09-2011 20:00:02 20.8 C 12.49 g/m*3 20.8 C 0 km/h
221 04-09-2011 20:12:02 20.4 C 12.38 g/m*3 20.4 C 0 km/h
222 04-09-2011 20:24:02 20.5 C 12.46 g/m*3 20.5 C 0 km/h
223 04-09-2011 20:36:02 20.4 C 12.56 g/m*3 20.4 C 0 km/h
224 04-09-2011 20:48:02 20.5 C 12.46 g/m*3 20.5 C 0 km/h
225 04-09-2011 21:00:02 20.6 C 11.99 g/m*3 20.6 C 0 km/h
Sensor: Nr:Datum:Temp:Abs-Feuchte:Windchill:Wind:
Aussen-T/F 226 04-09-2011 21:12:02 20.6 C 11.99 g/m*3 20.6 C 0 km/h
227 04-09-2011 21:24:02 20.4 C 12.03 g/m*3 20.4 C 0 km/h
228 04-09-2011 21:36:02 20.3 C 11.78 g/m*3 20.3 C 0 km/h
229 04-09-2011 21:48:02 20 C 11.75 g/m*3 20 C 0 km/h
230 04-09-2011 22:00:02 19.5 C 11.92 g/m*3 19.5 C 0 km/h
231 04-09-2011 22:12:02 19.6 C 12.15 g/m*3 19.6 C 0 km/h
232 04-09-2011 22:25:03 19.4 C 12.01 g/m*3 19.4 C 0 km/h
233 04-09-2011 22:37:03 19.3 C 12.11 g/m*3 19.3 C 0 km/h
234 04-09-2011 22:49:03 19.1 C 12.13 g/m*3 19.1 C 0 km/h
235 04-09-2011 23:01:03 18.9 C 12.15 g/m*3 18.9 C 0 km/h
236 04-09-2011 23:13:03 18.8 C 12.08 g/m*3 18.8 C 0 km/h
237 04-09-2011 23:25:03 18.6 C 12.1 g/m*3 18.6 C 0 km/h
238 04-09-2011 23:37:03 18.5 C 12.02 g/m*3 18.5 C 0 km/h
239 04-09-2011 23:49:03 18.2 C 11.97 g/m*3 18.2 C 0 km/h
240 05-09-2011 00:01:03 17.9 C 12.06 g/m*3 17.9 C 0 km/h
241 05-09-2011 00:13:03 17.8 C 11.99 g/m*3 17.8 C 0 km/h
242 05-09-2011 00:25:03 17.4 C 11.86 g/m*3 17.4 C 0 km/h
243 05-09-2011 00:37:03 17.3 C 11.93 g/m*3 17.3 C 0 km/h
244 05-09-2011 00:49:03 17.2 C 12.01 g/m*3 17.2 C 0 km/h
245 05-09-2011 01:01:03 17.4 C 12.15 g/m*3 17.4 C 0 km/h
246 05-09-2011 01:13:03 18 C 11.98 g/m*3 18 C 0 km/h
247 05-09-2011 01:25:03 17.3 C 11.49 g/m*3 17.3 C 0 km/h
248 05-09-2011 01:37:03 16.9 C 11.65 g/m*3 16.9 C 0 km/h
249 05-09-2011 01:49:03 16.9 C 11.79 g/m*3 16.9 C 0 km/h
250 05-09-2011 02:01:03 17 C 11.87 g/m*3 17 C 0 km/h
Sensor: Nr:Datum:Temp:Abs-Feuchte:Windchill:Wind:
Aussen-T/F 251 05-09-2011 02:13:03 17.3 C 12.08 g/m*3 17.3 C 0 km/h
252 05-09-2011 02:25:03 17.4 C 12 g/m*3 17.4 C 0 km/h
253 05-09-2011 02:37:03 17.5 C 11.93 g/m*3 17.5 C 0 km/h
254 05-09-2011 02:49:03 17.4 C 11.71 g/m*3 17.4 C 0 km/h
255 05-09-2011 03:01:04 17.1 C 11.65 g/m*3 17.1 C 0 km/h
256 05-09-2011 03:13:04 17 C 11.72 g/m*3 17 C 0 km/h
257 05-09-2011 03:25:04 16.7 C 11.65 g/m*3 16.7 C 0 km/h
258 05-09-2011 03:37:04 16.2 C 11.31 g/m*3 16.2 C 0 km/h
259 05-09-2011 03:49:04 16 C 11.31 g/m*3 16 C 0 km/h
260 05-09-2011 04:01:04 16 C 11.44 g/m*3 16 C 0 km/h
261 05-09-2011 04:13:04 16.5 C 11.94 g/m*3 16.5 C 0 km/h
262 05-09-2011 04:25:04 16.6 C 12.01 g/m*3 16.6 C 0 km/h
263 05-09-2011 04:37:04 16.9 C 12.23 g/m*3 16.9 C 0 km/h
264 05-09-2011 04:49:04 17.4 C 12.15 g/m*3 17.4 C 0 km/h
265 05-09-2011 05:01:04 17.7 C 11.92 g/m*3 17.7 C 0 km/h
266 05-09-2011 05:13:04 17.9 C 10.99 g/m*3 17.9 C 0 km/h
267 05-09-2011 05:25:04 17.8 C 10.32 g/m*3 17.8 C 0 km/h
268 05-09-2011 05:37:04 17.7 C 9.66 g/m*3 17.7 C 0 km/h
269 05-09-2011 05:49:04 17.5 C 9.24 g/m*3 17.5 C 0 km/h
270 05-09-2011 06:01:04 17.5 C 8.05 g/m*3 17.5 C 0 km/h
271 05-09-2011 06:13:04 17.2 C 7.03 g/m*3 17.2 C 0 km/h
272 05-09-2011 06:25:04 16.6 C 6.5 g/m*3 16.6 C 0 km/h
273 05-09-2011 06:37:04 16.4 C 6 g/m*3 16.4 C 0 km/h
274 05-09-2011 06:49:04 16 C 5.99 g/m*3 16 C 0 km/h
275 05-09-2011 07:01:04 15.4 C 6.18 g/m*3 15.4 C 0 km/h
Sensor: Nr:Datum:Temp:Abs-Feuchte:Windchill:Wind:
Aussen-T/F 276 05-09-2011 07:13:04 14.8 C 6.46 g/m*3 14.8 C 0 km/h
277 05-09-2011 07:25:03 14.4 C 6.8 g/m*3 14.4 C 0 km/h
278 05-09-2011 07:37:03 14.3 C 6.88 g/m*3 14.3 C 0 km/h
279 05-09-2011 07:49:02 14.2 C 6.84 g/m*3 14.2 C 0 km/h
280 05-09-2011 08:01:03 13.8 C 7.15 g/m*3 13.8 C 0 km/h
281 05-09-2011 08:13:03 13.7 C 7.22 g/m*3 13.7 C 0 km/h
282 05-09-2011 08:25:02 14 C 7.24 g/m*3 14 C 0 km/h
283 05-09-2011 08:37:02 14 C 7.48 g/m*3 14 C 0 km/h
284 05-09-2011 08:49:01 14.3 C 7.37 g/m*3 14.3 C 0 km/h
285 05-09-2011 09:01:02 14.1 C 7.52 g/m*3 14.1 C 0 km/h
286 05-09-2011 09:13:02 14.2 C 7.69 g/m*3 14.2 C 0 km/h
287 05-09-2011 09:25:01 14.8 C 7.6 g/m*3 14.8 C 0 km/h
288 05-09-2011 09:37:01 14.8 C 7.98 g/m*3 14.8 C 0 km/h
289 05-09-2011 09:49:01 15.4 C 7.75 g/m*3 15.4 C 0 km/h
290 05-09-2011 10:01:01 16 C 7.49 g/m*3 16 C 0 km/h
291 05-09-2011 10:13:01 16.2 C 7.58 g/m*3 16.2 C 0 km/h
292 05-09-2011 10:25:02 16.6 C 7.49 g/m*3 16.6 C 0 km/h
293 05-09-2011 10:37:01 17.1 C 7.42 g/m*3 17.1 C 0 km/h
294 05-09-2011 10:49:03 17.6 C 7.05 g/m*3 17.6 C 0 km/h
295 05-09-2011 11:01:02 17.5 C 7.16 g/m*3 17.5 C 0 km/h
296 05-09-2011 11:13:02 17.7 C 6.94 g/m*3 17.7 C 0 km/h
297 05-09-2011 11:25:02 18.2 C 6.99 g/m*3 18.2 C 0 km/h
298 05-09-2011 11:37:02 18.5 C 7.12 g/m*3 18.5 C 0 km/h
299 05-09-2011 11:49:02 18.5 C 7.12 g/m*3 18.5 C 0 km/h
300 05-09-2011 12:01:01 19.3 C 7.13 g/m*3 19.3 C 0 km/h
Sensor: Nr:Datum:Temp:Abs-Feuchte:Windchill:Wind:
Aussen-T/F 301 05-09-2011 12:13:01 19.3 C 7.3 g/m*3 19.3 C 0 km/h
302 05-09-2011 12:25:02 19.1 C 7.05 g/m*3 19.1 C 0 km/h
303 05-09-2011 12:37:02 19.1 C 7.05 g/m*3 19.1 C 0 km/h
304 05-09-2011 12:49:02 19.7 C 7.3 g/m*3 19.7 C 0 km/h
305 05-09-2011 13:01:02 20 C 7.09 g/m*3 20 C 0 km/h
306 05-09-2011 13:13:02 19.3 C 6.97 g/m*3 19.3 C 0 km/h
307 05-09-2011 13:25:02 20.3 C 7.03 g/m*3 20.3 C 0 km/h
308 05-09-2011 13:37:02 19.6 C 6.75 g/m*3 19.6 C 0 km/h
309 05-09-2011 13:49:01 21.2 C 6.67 g/m*3 21.2 C 0 km/h
310 05-09-2011 14:01:02 20.4 C 7.08 g/m*3 20.4 C 0 km/h
311 05-09-2011 14:13:03 20.2 C 6.29 g/m*3 20.2 C 0 km/h
312 05-09-2011 14:25:01 21.2 C 6.12 g/m*3 21.2 C 0 km/h
313 05-09-2011 14:37:01 22 C 5.82 g/m*3 22 C 0 km/h
314 05-09-2011 14:49:01 21.9 C 6.18 g/m*3 21.9 C 0 km/h
315 05-09-2011 15:01:01 20.4 C 6.37 g/m*3 20.4 C 0 km/h
316 05-09-2011 15:13:01 20.3 C 7.21 g/m*3 20.3 C 0 km/h
317 05-09-2011 15:25:02 19.3 C 6.97 g/m*3 19.3 C 0 km/h
318 05-09-2011 15:37:01 19.2 C 5.94 g/m*3 19.2 C 0 km/h
319 05-09-2011 15:49:03 19.8 C 6.32 g/m*3 19.8 C 0 km/h
320 05-09-2011 16:01:02 22.4 C 5.96 g/m*3 22.4 C 0 km/h
321 05-09-2011 16:13:02 20.9 C 6.01 g/m*3 20.9 C 0 km/h
322 05-09-2011 16:25:02 22.7 C 5.66 g/m*3 22.7 C 0 km/h
323 05-09-2011 16:37:02 22.8 C 5.28 g/m*3 22.8 C 0 km/h
324 05-09-2011 16:49:02 22.9 C 5.11 g/m*3 22.9 C 0 km/h
325 05-09-2011 17:01:02 23.2 C 5.2 g/m*3 23.2 C 0 km/h
Sensor: Nr:Datum:Temp:Abs-Feuchte:Windchill:Wind:
Aussen-T/F 326 05-09-2011 17:13:02 22.7 C 5.05 g/m*3 22.7 C 0 km/h
327 05-09-2011 17:25:02 22.4 C 4.96 g/m*3 22.4 C 0 km/h
328 05-09-2011 17:37:02 23.9 C 5.41 g/m*3 23.9 C 0 km/h
329 05-09-2011 17:49:02 23.3 C 4.81 g/m*3 23.3 C 0 km/h
330 05-09-2011 18:01:02 22.7 C 5.05 g/m*3 22.7 C 0 km/h
331 05-09-2011 18:13:02 22.6 C 5.22 g/m*3 22.6 C 0 km/h
332 05-09-2011 18:25:01 22.4 C 4.96 g/m*3 22.4 C 0 km/h
333 05-09-2011 18:37:02 21.9 C 5.02 g/m*3 21.9 C 0 km/h
334 05-09-2011 18:49:02 19.7 C 5.26 g/m*3 19.7 C 0 km/h
335 05-09-2011 19:01:02 20.9 C 5.1 g/m*3 20.9 C 0 km/h
336 05-09-2011 19:13:02 19.8 C 5.12 g/m*3 19.8 C 0 km/h
337 05-09-2011 19:25:01 19.3 C 5.31 g/m*3 19.3 C 0 km/h
338 05-09-2011 19:37:02 18.9 C 5.67 g/m*3 18.9 C 0 km/h
339 05-09-2011 19:49:02 17.9 C 5.95 g/m*3 17.9 C 0 km/h
340 05-09-2011 20:01:02 17.7 C 5.88 g/m*3 17.7 C 0 km/h
341 05-09-2011 20:13:02 16.8 C 6.15 g/m*3 16.8 C 0 km/h
342 05-09-2011 20:25:01 17.1 C 5.97 g/m*3 17.1 C 0 km/h
343 05-09-2011 20:37:02 17.5 C 6.11 g/m*3 17.5 C 0 km/h
344 05-09-2011 20:49:02 17 C 6.08 g/m*3 17 C 0 km/h
345 05-09-2011 21:01:02 16.6 C 6.22 g/m*3 16.6 C 0 km/h
346 05-09-2011 21:13:02 16.8 C 6 g/m*3 16.8 C 0 km/h
347 05-09-2011 21:25:02 16.7 C 5.83 g/m*3 16.7 C 0 km/h
348 05-09-2011 21:37:03 16.4 C 5.86 g/m*3 16.4 C 0 km/h
349 05-09-2011 21:49:02 15.9 C 6.09 g/m*3 15.9 C 0 km/h
350 05-09-2011 22:01:02 15.1 C 6.19 g/m*3 15.1 C 0 km/h
Sensor: Nr:Datum:Temp:Abs-Feuchte:Windchill:Wind:
Aussen-T/F 351 05-09-2011 22:13:02 14.4 C 6.43 g/m*3 14.4 C 0 km/h
352 05-09-2011 22:26:01 14.1 C 6.67 g/m*3 14.1 C 0 km/h
353 05-09-2011 22:38:01 15 C 6.54 g/m*3 15 C 0 km/h
354 05-09-2011 22:50:01 14.6 C 6.63 g/m*3 14.6 C 0 km/h
355 05-09-2011 23:02:01 14.5 C 6.72 g/m*3 14.5 C 0 km/h
356 05-09-2011 23:14:01 14 C 6.75 g/m*3 14 C 0 km/h
357 05-09-2011 23:26:02 13.5 C 7.13 g/m*3 13.5 C 0 km/h
358 05-09-2011 23:38:02 13.7 C 7.34 g/m*3 13.7 C 0 km/h
359 05-09-2011 23:50:02 13.8 C 7.51 g/m*3 13.8 C 0 km/h
360 06-09-2011 00:02:02 12.9 C 7.44 g/m*3 12.9 C 0 km/h
361 06-09-2011 00:14:02 12.5 C 7.7 g/m*3 12.5 C 0 km/h
362 06-09-2011 00:26:02 12.5 C 7.81 g/m*3 12.5 C 0 km/h
363 06-09-2011 00:38:02 13 C 7.83 g/m*3 13 C 0 km/h
364 06-09-2011 00:50:02 12.7 C 7.79 g/m*3 12.7 C 0 km/h
365 06-09-2011 01:02:02 12.6 C 7.97 g/m*3 12.6 C 0 km/h
366 06-09-2011 01:14:02 12.1 C 7.72 g/m*3 12.1 C 0 km/h
367 06-09-2011 01:26:02 11.6 C 7.69 g/m*3 11.6 C 0 km/h
368 06-09-2011 01:38:02 11.3 C 7.75 g/m*3 11.3 C 0 km/h
369 06-09-2011 01:50:02 11.3 C 7.85 g/m*3 11.3 C 0 km/h
370 06-09-2011 02:02:02 11.1 C 7.86 g/m*3 11.1 C 0 km/h
371 06-09-2011 02:14:02 11.4 C 8.11 g/m*3 11.4 C 0 km/h
372 06-09-2011 02:26:02 11.7 C 8.05 g/m*3 11.7 C 0 km/h
373 06-09-2011 02:38:02 11.9 C 7.94 g/m*3 11.9 C 0 km/h
374 06-09-2011 02:50:02 12 C 7.89 g/m*3 12 C 0 km/h
375 06-09-2011 03:02:02 12 C 7.89 g/m*3 12 C 0 km/h
Sensor: Nr:Datum:Temp:Abs-Feuchte:Windchill:Wind:
Aussen-T/F 376 06-09-2011 03:14:02 11.5 C 7.85 g/m*3 11.5 C 0 km/h
377 06-09-2011 03:26:02 11.2 C 8.01 g/m*3 11.2 C 0 km/h
378 06-09-2011 03:38:02 11.2 C 8.11 g/m*3 11.2 C 0 km/h
379 06-09-2011 03:50:02 12 C 8.53 g/m*3 12 C 0 km/h
380 06-09-2011 04:02:03 12.2 C 8.31 g/m*3 12.2 C 0 km/h
381 06-09-2011 04:14:03 11.9 C 8.37 g/m*3 11.9 C 0 km/h
382 06-09-2011 04:26:03 11.6 C 8.21 g/m*3 11.6 C 0 km/h
383 06-09-2011 04:38:03 11.5 C 8.26 g/m*3 11.5 C 0 km/h
384 06-09-2011 04:50:03 11.3 C 8.16 g/m*3 11.3 C 0 km/h
385 06-09-2011 05:02:03 11.5 C 8.37 g/m*3 11.5 C 0 km/h
386 06-09-2011 05:14:03 11.6 C 8.32 g/m*3 11.6 C 0 km/h
387 06-09-2011 05:26:03 11.8 C 8.42 g/m*3 11.8 C 0 km/h
388 06-09-2011 05:38:03 11.7 C 8.26 g/m*3 11.7 C 0 km/h
389 06-09-2011 05:50:03 11.4 C 8.21 g/m*3 11.4 C 0 km/h
390 06-09-2011 06:02:03 11.4 C 8.31 g/m*3 11.4 C 0 km/h
391 06-09-2011 06:14:03 11.4 C 8.31 g/m*3 11.4 C 0 km/h
392 06-09-2011 06:26:03 11.4 C 8.31 g/m*3 11.4 C 0 km/h
393 06-09-2011 06:38:03 11.1 C 8.16 g/m*3 11.1 C 0 km/h
394 06-09-2011 06:50:03 11.1 C 8.26 g/m*3 11.1 C 0 km/h
395 06-09-2011 07:02:02 11 C 8.21 g/m*3 11 C 0 km/h
396 06-09-2011 07:14:02 10.9 C 8.16 g/m*3 10.9 C 0 km/h
397 06-09-2011 07:26:01 10.8 C 8.2 g/m*3 10.8 C 0 km/h
398 06-09-2011 07:38:02 10.8 C 8.2 g/m*3 10.8 C 0 km/h
399 06-09-2011 07:50:02 10.8 C 8.3 g/m*3 10.8 C 0 km/h
400 06-09-2011 08:02:02 10.8 C 8.3 g/m*3 10.8 C 0 km/h
Sensor: Nr:Datum:Temp:Abs-Feuchte:Windchill:Wind:
Aussen-T/F 401 06-09-2011 08:14:02 11.2 C 8.51 g/m*3 11.2 C 0 km/h
402 06-09-2011 08:26:02 11.3 C 8.57 g/m*3 11.3 C 0 km/h
403 06-09-2011 08:38:03 11.6 C 8.73 g/m*3 11.6 C 0 km/h
404 06-09-2011 08:50:02 11.9 C 8.9 g/m*3 11.9 C 0 km/h
405 06-09-2011 09:02:02 12.1 C 8.9 g/m*3 12.1 C 0 km/h
406 06-09-2011 09:14:02 12.7 C 8.79 g/m*3 12.7 C 0 km/h
407 06-09-2011 09:26:02 13.3 C 8.43 g/m*3 13.3 C 0 km/h
408 06-09-2011 09:38:02 14.7 C 8.44 g/m*3 14.7 C 0 km/h
409 06-09-2011 09:50:01 15.6 C 7.58 g/m*3 15.6 C 0 km/h
410 06-09-2011 10:02:02 16 C 7.36 g/m*3 16 C 0 km/h
411 06-09-2011 10:14:02 16.6 C 7.06 g/m*3 16.6 C 0 km/h
412 06-09-2011 10:26:01 16.6 C 7.06 g/m*3 16.6 C 0 km/h
413 06-09-2011 10:38:02 16.8 C 7.01 g/m*3 16.8 C 0 km/h
414 06-09-2011 10:50:02 16.8 C 7.01 g/m*3 16.8 C 0 km/h
415 06-09-2011 11:02:02 17.4 C 6.97 g/m*3 17.4 C 0 km/h
416 06-09-2011 11:14:02 18.1 C 6.95 g/m*3 18.1 C 0 km/h
417 06-09-2011 11:26:02 17.8 C 6.68 g/m*3 17.8 C 0 km/h
418 06-09-2011 11:38:02 17.9 C 6.72 g/m*3 17.9 C 0 km/h
419 06-09-2011 11:50:02 18.2 C 6.53 g/m*3 18.2 C 0 km/h
420 06-09-2011 12:02:02 18.8 C 6.6 g/m*3 18.8 C 0 km/h
421 06-09-2011 12:14:02 18.8 C 6.6 g/m*3 18.8 C 0 km/h
422 06-09-2011 12:26:03 19.6 C 6.92 g/m*3 19.6 C 0 km/h
423 06-09-2011 12:38:02 19 C 6.36 g/m*3 19 C 0 km/h
424 06-09-2011 12:50:03 20.1 C 6.61 g/m*3 20.1 C 0 km/h
425 06-09-2011 13:02:02 19.5 C 6.55 g/m*3 19.5 C 0 km/h
Sensor: Nr:Datum:Temp:Abs-Feuchte:Windchill:Wind:
Aussen-T/F 426 06-09-2011 13:14:02 19.7 C 6.62 g/m*3 19.7 C 0 km/h
427 06-09-2011 13:26:02 20.1 C 6.61 g/m*3 20.1 C 0 km/h
428 06-09-2011 13:38:02 19.8 C 6.66 g/m*3 19.8 C 0 km/h
429 06-09-2011 13:50:02 20.7 C 7.02 g/m*3 20.7 C 0 km/h
430 06-09-2011 14:02:02 21.4 C 6.94 g/m*3 21.4 C 0 km/h
431 06-09-2011 14:14:02 21.1 C 6.63 g/m*3 21.1 C 0 km/h
432 06-09-2011 14:26:02 20.8 C 6.52 g/m*3 20.8 C 0 km/h
433 06-09-2011 14:38:03 20.7 C 6.48 g/m*3 20.7 C 0 km/h
434 06-09-2011 14:50:02 20.3 C 6.33 g/m*3 20.3 C 0 km/h
435 06-09-2011 15:02:02 21 C 6.59 g/m*3 21 C 0 km/h
436 06-09-2011 15:14:02 21.2 C 6.49 g/m*3 21.2 C 0 km/h
437 06-09-2011 15:26:02 20.8 C 6.7 g/m*3 20.8 C 0 km/h
438 06-09-2011 15:38:02 20.1 C 6.43 g/m*3 20.1 C 0 km/h
439 06-09-2011 15:50:01 19.8 C 6.49 g/m*3 19.8 C 0 km/h
440 06-09-2011 16:02:02 19.7 C 6.79 g/m*3 19.7 C 0 km/h
441 06-09-2011 16:14:02 19.4 C 6.67 g/m*3 19.4 C 0 km/h
442 06-09-2011 16:26:01 19.4 C 6.67 g/m*3 19.4 C 0 km/h
443 06-09-2011 16:38:02 19.4 C 6.67 g/m*3 19.4 C 0 km/h
444 06-09-2011 16:50:01 19.5 C 7.05 g/m*3 19.5 C 0 km/h
445 06-09-2011 17:02:02 19.2 C 6.76 g/m*3 19.2 C 0 km/h
446 06-09-2011 17:14:02 19.5 C 7.22 g/m*3 19.5 C 0 km/h
447 06-09-2011 17:26:02 19.3 C 6.8 g/m*3 19.3 C 0 km/h
448 06-09-2011 17:38:02 19.2 C 6.93 g/m*3 19.2 C 0 km/h
449 06-09-2011 17:50:02 19.1 C 6.72 g/m*3 19.1 C 0 km/h
450 06-09-2011 18:02:02 18.7 C 7.04 g/m*3 18.7 C 0 km/h
Sensor: Nr:Datum:Temp:Abs-Feuchte:Windchill:Wind:
Aussen-T/F 451 06-09-2011 18:14:02 18.5 C 7.12 g/m*3 18.5 C 0 km/h
452 06-09-2011 18:26:02 18.2 C 7.31 g/m*3 18.2 C 0 km/h
453 06-09-2011 18:38:03 18.3 C 7.19 g/m*3 18.3 C 0 km/h
454 06-09-2011 18:50:02 18.5 C 7.28 g/m*3 18.5 C 0 km/h
455 06-09-2011 19:02:02 18.3 C 7.19 g/m*3 18.3 C 0 km/h
456 06-09-2011 19:14:02 18.3 C 7.19 g/m*3 18.3 C 0 km/h
457 06-09-2011 19:26:02 18.2 C 7.31 g/m*3 18.2 C 0 km/h
458 06-09-2011 19:38:02 18.2 C 7.31 g/m*3 18.2 C 0 km/h
459 06-09-2011 19:50:02 18.2 C 7.15 g/m*3 18.2 C 0 km/h
460 06-09-2011 20:02:02 17.8 C 7.59 g/m*3 17.8 C 0 km/h
461 06-09-2011 20:14:02 18 C 7.22 g/m*3 18 C 0 km/h
462 06-09-2011 20:26:02 17.9 C 7.63 g/m*3 17.9 C 0 km/h
463 06-09-2011 20:38:03 17.8 C 7.59 g/m*3 17.8 C 0 km/h
464 06-09-2011 20:50:02 18 C 7.37 g/m*3 18 C 0 km/h
465 06-09-2011 21:02:02 17.9 C 7.63 g/m*3 17.9 C 0 km/h
466 06-09-2011 21:14:02 17.7 C 7.69 g/m*3 17.7 C 0 km/h
467 06-09-2011 21:26:02 17.6 C 7.65 g/m*3 17.6 C 0 km/h
468 06-09-2011 21:38:02 18.1 C 7.42 g/m*3 18.1 C 0 km/h
469 06-09-2011 21:50:02 18.5 C 7.44 g/m*3 18.5 C 0 km/h
470 06-09-2011 22:02:02 18.5 C 7.44 g/m*3 18.5 C 0 km/h
471 06-09-2011 22:14:02 18.6 C 7.48 g/m*3 18.6 C 0 km/h
472 06-09-2011 22:27:02 18.8 C 7.57 g/m*3 18.8 C 0 km/h
473 06-09-2011 22:39:02 18.9 C 7.45 g/m*3 18.9 C 0 km/h
474 06-09-2011 22:51:02 19.1 C 7.54 g/m*3 19.1 C 0 km/h
475 06-09-2011 23:03:02 19.1 C 7.54 g/m*3 19.1 C 0 km/h
Sensor: Nr:Datum:Temp:Abs-Feuchte:Windchill:Wind:
Aussen-T/F 476 06-09-2011 23:15:02 19 C 7.5 g/m*3 19 C 0 km/h
477 06-09-2011 23:27:02 19.1 C 7.54 g/m*3 19.1 C 0 km/h
478 06-09-2011 23:39:02 19 C 7.5 g/m*3 19 C 0 km/h
479 06-09-2011 23:51:02 19.1 C 7.54 g/m*3 19.1 C 0 km/h
480 07-09-2011 00:03:02 19.1 C 7.7 g/m*3 19.1 C 0 km/h
481 07-09-2011 00:15:02 19.1 C 7.7 g/m*3 19.1 C 0 km/h
482 07-09-2011 00:27:03 19.1 C 7.7 g/m*3 19.1 C 0 km/h
483 07-09-2011 00:39:03 19.1 C 7.87 g/m*3 19.1 C 0 km/h
484 07-09-2011 00:51:03 19.1 C 7.87 g/m*3 19.1 C 0 km/h
485 07-09-2011 01:03:03 19 C 7.82 g/m*3 19 C 0 km/h
486 07-09-2011 01:15:03 18.3 C 8.29 g/m*3 18.3 C 0 km/h
487 07-09-2011 01:27:03 18.3 C 8.44 g/m*3 18.3 C 0 km/h
488 07-09-2011 01:39:03 18 C 8.45 g/m*3 18 C 0 km/h
489 07-09-2011 01:51:03 17.9 C 8.7 g/m*3 17.9 C 0 km/h
490 07-09-2011 02:03:03 17.4 C 8.89 g/m*3 17.4 C 0 km/h
491 07-09-2011 02:15:03 16.4 C 9.21 g/m*3 16.4 C 0 km/h
492 07-09-2011 02:27:03 15.7 C 9.9 g/m*3 15.7 C 0 km/h
493 07-09-2011 02:39:03 15.6 C 10.24 g/m*3 15.6 C 0 km/h
494 07-09-2011 02:51:03 15.4 C 10.25 g/m*3 15.4 C 0 km/h
495 07-09-2011 03:03:03 15.4 C 10.38 g/m*3 15.4 C 0 km/h
496 07-09-2011 03:15:03 15.4 C 10.38 g/m*3 15.4 C 0 km/h
497 07-09-2011 03:27:03 15.8 C 10.5 g/m*3 15.8 C 0 km/h
498 07-09-2011 03:39:03 15.8 C 10.23 g/m*3 15.8 C 0 km/h
499 07-09-2011 03:51:03 15.4 C 10.38 g/m*3 15.4 C 0 km/h
500 07-09-2011 04:03:03 15.9 C 10.56 g/m*3 15.9 C 0 km/h
Sensor: Nr:Datum:Temp:Abs-Feuchte:Windchill:Wind:
Aussen-T/F 501 07-09-2011 04:15:03 15.8 C 10.5 g/m*3 15.8 C 0 km/h
502 07-09-2011 04:27:03 15.9 C 10.43 g/m*3 15.9 C 0 km/h
503 07-09-2011 04:39:03 15.7 C 10.3 g/m*3 15.7 C 0 km/h
504 07-09-2011 04:51:04 15.7 C 10.44 g/m*3 15.7 C 0 km/h
505 07-09-2011 05:03:04 15.7 C 10.44 g/m*3 15.7 C 0 km/h
506 07-09-2011 05:15:04 16 C 10.35 g/m*3 16 C 0 km/h
507 07-09-2011 05:27:04 15.6 C 10.37 g/m*3 15.6 C 0 km/h
508 07-09-2011 05:39:04 15.3 C 10.58 g/m*3 15.3 C 0 km/h
509 07-09-2011 05:51:04 15 C 10.77 g/m*3 15 C 0 km/h
510 07-09-2011 06:03:04 14.4 C 9.89 g/m*3 14.4 C 0 km/h
511 07-09-2011 06:15:04 14 C 8.68 g/m*3 14 C 0 km/h
512 07-09-2011 06:27:04 14.1 C 8.37 g/m*3 14.1 C 0 km/h
513 07-09-2011 06:39:04 13.9 C 8.63 g/m*3 13.9 C 0 km/h
514 07-09-2011 06:51:04 13.4 C 8.95 g/m*3 13.4 C 0 km/h
515 07-09-2011 07:03:03 13.3 C 9.01 g/m*3 13.3 C 0 km/h
516 07-09-2011 07:15:03 13.6 C 8.83 g/m*3 13.6 C 0 km/h
517 07-09-2011 07:27:03 13.5 C 8.66 g/m*3 13.5 C 0 km/h
518 07-09-2011 07:39:02 13.3 C 8.78 g/m*3 13.3 C 0 km/h
519 07-09-2011 07:51:01 13.2 C 9.07 g/m*3 13.2 C 0 km/h
520 07-09-2011 08:03:02 13.5 C 9.12 g/m*3 13.5 C 0 km/h
521 07-09-2011 08:15:01 13.8 C 8.7 g/m*3 13.8 C 0 km/h
522 07-09-2011 08:27:01 14.1 C 8.5 g/m*3 14.1 C 0 km/h
523 07-09-2011 08:39:02 14.3 C 8.23 g/m*3 14.3 C 0 km/h
524 07-09-2011 08:51:02 14.2 C 8.18 g/m*3 14.2 C 0 km/h
525 07-09-2011 09:03:02 14.4 C 8.03 g/m*3 14.4 C 0 km/h
Sensor: Nr:Datum:Temp:Abs-Feuchte:Windchill:Wind:
Aussen-T/F 526 07-09-2011 09:15:02 14.6 C 7.88 g/m*3 14.6 C 0 km/h
527 07-09-2011 09:27:02 14.8 C 7.6 g/m*3 14.8 C 0 km/h
528 07-09-2011 09:39:02 14.9 C 7.9 g/m*3 14.9 C 0 km/h
529 07-09-2011 09:51:01 14.9 C 8.03 g/m*3 14.9 C 0 km/h
530 07-09-2011 10:03:02 14.9 C 8.16 g/m*3 14.9 C 0 km/h
531 07-09-2011 10:15:02 14.9 C 8.28 g/m*3 14.9 C 0 km/h
532 07-09-2011 10:27:02 14.8 C 8.11 g/m*3 14.8 C 0 km/h
533 07-09-2011 10:39:02 15.5 C 8.06 g/m*3 15.5 C 0 km/h
534 07-09-2011 10:51:02 15.7 C 8.16 g/m*3 15.7 C 0 km/h
535 07-09-2011 11:03:01 15.6 C 8.11 g/m*3 15.6 C 0 km/h
536 07-09-2011 11:15:02 15.4 C 7.49 g/m*3 15.4 C 0 km/h
537 07-09-2011 11:27:03 16.1 C 6.31 g/m*3 16.1 C 0 km/h
538 07-09-2011 11:39:01 16.6 C 6.64 g/m*3 16.6 C 0 km/h
539 07-09-2011 11:51:02 16.2 C 6.9 g/m*3 16.2 C 0 km/h
540 07-09-2011 12:03:01 16.6 C 6.36 g/m*3 16.6 C 0 km/h
541 07-09-2011 12:15:01 16.8 C 6.15 g/m*3 16.8 C 0 km/h
542 07-09-2011 12:27:01 17.4 C 6.22 g/m*3 17.4 C 0 km/h
543 07-09-2011 12:39:02 17.5 C 5.96 g/m*3 17.5 C 0 km/h
544 07-09-2011 12:51:02 17.5 C 6.11 g/m*3 17.5 C 0 km/h
545 07-09-2011 13:03:02 17.8 C 6.07 g/m*3 17.8 C 0 km/h
546 07-09-2011 13:15:02 17.5 C 6.11 g/m*3 17.5 C 0 km/h
547 07-09-2011 13:27:02 17.7 C 6.79 g/m*3 17.7 C 0 km/h
548 07-09-2011 13:39:02 17.9 C 6.41 g/m*3 17.9 C 0 km/h
549 07-09-2011 13:51:02 19.3 C 6.47 g/m*3 19.3 C 0 km/h
550 07-09-2011 14:03:03 18.1 C 6.03 g/m*3 18.1 C 0 km/h
Sensor: Nr:Datum:Temp:Abs-Feuchte:Windchill:Wind:
Aussen-T/F 551 07-09-2011 14:15:02 18.5 C 6.33 g/m*3 18.5 C 0 km/h
552 07-09-2011 14:27:02 18.5 C 6.01 g/m*3 18.5 C 0 km/h
553 07-09-2011 14:39:02 17.9 C 6.11 g/m*3 17.9 C 0 km/h
554 07-09-2011 14:51:01 18.1 C 6.18 g/m*3 18.1 C 0 km/h
555 07-09-2011 15:03:02 18 C 6.14 g/m*3 18 C 0 km/h
556 07-09-2011 15:15:01 20.5 C 6.05 g/m*3 20.5 C 0 km/h
557 07-09-2011 15:27:01 18.7 C 6.08 g/m*3 18.7 C 0 km/h
558 07-09-2011 15:39:01 18.5 C 6.33 g/m*3 18.5 C 0 km/h
559 07-09-2011 15:51:01 18.3 C 5.79 g/m*3 18.3 C 0 km/h
560 07-09-2011 16:03:01 18.4 C 6.13 g/m*3 18.4 C 0 km/h
561 07-09-2011 16:15:02 19.2 C 6.1 g/m*3 19.2 C 0 km/h
562 07-09-2011 16:27:02 19.1 C 6.39 g/m*3 19.1 C 0 km/h
563 07-09-2011 16:39:01 19.2 C 6.27 g/m*3 19.2 C 0 km/h
564 07-09-2011 16:51:02 19 C 6.03 g/m*3 19 C 0 km/h
565 07-09-2011 17:03:01 18.4 C 5.98 g/m*3 18.4 C 0 km/h
566 07-09-2011 17:15:01 18 C 5.99 g/m*3 18 C 0 km/h
567 07-09-2011 17:27:01 17.8 C 6.53 g/m*3 17.8 C 0 km/h
568 07-09-2011 17:39:01 18.1 C 6.18 g/m*3 18.1 C 0 km/h
569 07-09-2011 17:51:02 18.2 C 5.91 g/m*3 18.2 C 0 km/h
570 07-09-2011 18:03:02 18.1 C 6.03 g/m*3 18.1 C 0 km/h
571 07-09-2011 18:15:02 18 C 5.99 g/m*3 18 C 0 km/h
572 07-09-2011 18:27:02 17.8 C 6.22 g/m*3 17.8 C 0 km/h
573 07-09-2011 18:39:02 17.4 C 6.82 g/m*3 17.4 C 0 km/h
574 07-09-2011 18:51:02 17.3 C 6.48 g/m*3 17.3 C 0 km/h
575 07-09-2011 19:03:02 17.5 C 6.11 g/m*3 17.5 C 0 km/h
Sensor: Nr:Datum:Temp:Abs-Feuchte:Windchill:Wind:
Aussen-T/F 576 07-09-2011 19:15:02 17.2 C 6.3 g/m*3 17.2 C 0 km/h
577 07-09-2011 19:27:02 16.9 C 6.62 g/m*3 16.9 C 0 km/h
578 07-09-2011 19:39:02 16.5 C 6.74 g/m*3 16.5 C 0 km/h
579 07-09-2011 19:51:02 16.6 C 6.78 g/m*3 16.6 C 0 km/h
580 07-09-2011 20:03:02 16.9 C 6.62 g/m*3 16.9 C 0 km/h
581 07-09-2011 20:15:02 17 C 6.66 g/m*3 17 C 0 km/h
582 07-09-2011 20:27:02 16.5 C 6.88 g/m*3 16.5 C 0 km/h
583 07-09-2011 20:39:02 16 C 7.22 g/m*3 16 C 0 km/h
584 07-09-2011 20:51:03 15.8 C 7.4 g/m*3 15.8 C 0 km/h
585 07-09-2011 21:03:02 15.7 C 7.49 g/m*3 15.7 C 0 km/h
586 07-09-2011 21:15:03 15.7 C 7.49 g/m*3 15.7 C 0 km/h
587 07-09-2011 21:27:03 15.4 C 7.62 g/m*3 15.4 C 0 km/h
588 07-09-2011 21:39:03 15.2 C 7.79 g/m*3 15.2 C 0 km/h
589 07-09-2011 21:51:01 15 C 7.82 g/m*3 15 C 0 km/h
590 07-09-2011 22:03:01 15.4 C 7.75 g/m*3 15.4 C 0 km/h
591 07-09-2011 22:16:00 15.4 C 7.62 g/m*3 15.4 C 0 km/h
592 07-09-2011 22:28:00 15.8 C 7.27 g/m*3 15.8 C 0 km/h
593 07-09-2011 22:40:00 15.7 C 7.36 g/m*3 15.7 C 0 km/h
594 07-09-2011 22:52:00 15.6 C 7.05 g/m*3 15.6 C 0 km/h
595 07-09-2011 23:04:00 15.4 C 7.09 g/m*3 15.4 C 0 km/h
596 07-09-2011 23:16:00 15.4 C 7.09 g/m*3 15.4 C 0 km/h
597 07-09-2011 23:28:00 15.4 C 7.23 g/m*3 15.4 C 0 km/h
598 07-09-2011 23:40:00 15.2 C 7.14 g/m*3 15.2 C 0 km/h
599 07-09-2011 23:52:00 15.5 C 7.14 g/m*3 15.5 C 0 km/h

Legende:
   Min
   Max


Maximal/Minimal-Werte vom 03.09.2011 - 07.09.2011

Sensor Min Max Avg
Temp
(Aussen-T/F)
10.8 °C
06-09-2011  07:26:01
33 °C
03-09-2011  16:11:02
18.5 °C
Abs-Feuchte
(Aussen-T/F)
4.81 g/m*3
05-09-2011  17:49:02
16.73 g/m*3
03-09-2011  12:35:03
9.41 g/m*3
Windchill
(Aussen-T/F)
10.8 C
06-09-2011  07:26:01
33 C
03-09-2011  16:11:02
18.47 C

Die Daten stammen von einer Davis Vantage Pro 2 Wetter-Station und werden unter Linux mit der Software wview2wettercgi und aufbereitet. Alle Angaben erfolgen ohne Gewähr für ihre Vollständigkeit oder Richtigkeit.
Kontakt: Rainer Krienke krienke@uni-koblenz.de . Meine Webseiten an der Uni Koblenz oder privat.
Version: $Revision: 0.78 $